createdAt,value
2018-12-10T00:00:31.208Z,19.28
2018-12-10T00:01:31.419Z,19.27
2018-12-10T00:02:31.042Z,19.27
2018-12-10T00:03:31.065Z,19.27
2018-12-10T00:04:31.477Z,19.27
2018-12-10T00:05:31.313Z,19.26
2018-12-10T00:06:31.134Z,19.24
2018-12-10T00:07:31.120Z,19.25
2018-12-10T00:08:31.416Z,19.24
2018-12-10T00:09:31.420Z,19.24
2018-12-10T00:10:31.530Z,19.23
2018-12-10T00:11:31.014Z,19.23
2018-12-10T00:12:32.064Z,19.22
2018-12-10T00:13:31.644Z,19.23
2018-12-10T00:14:31.047Z,19.22
2018-12-10T00:15:31.231Z,19.22
2018-12-10T00:16:31.237Z,19.21
2018-12-10T00:17:31.255Z,19.21
2018-12-10T00:18:31.369Z,19.21
2018-12-10T00:19:31.247Z,19.21
2018-12-10T00:20:30.993Z,19.21
2018-12-10T00:21:31.499Z,19.21
2018-12-10T00:22:30.975Z,19.2
2018-12-10T00:23:31.410Z,19.19
2018-12-10T00:24:30.924Z,19.19
2018-12-10T00:25:31.025Z,19.2
2018-12-10T00:26:31.496Z,19.19
2018-12-10T00:27:31.309Z,19.19
2018-12-10T00:28:31.185Z,19.19
2018-12-10T00:29:31.026Z,19.19
2018-12-10T00:30:31.290Z,19.18
2018-12-10T00:31:31.297Z,19.18
2018-12-10T00:32:31.096Z,19.17
2018-12-10T00:33:31.224Z,19.17
2018-12-10T00:34:31.004Z,19.16
2018-12-10T00:35:31.382Z,19.15
2018-12-10T00:36:31.017Z,19.15
2018-12-10T00:37:31.280Z,19.15
2018-12-10T00:38:31.211Z,19.15
2018-12-10T00:39:31.472Z,19.15
2018-12-10T00:40:31.321Z,19.15
2018-12-10T00:41:31.072Z,19.15
2018-12-10T00:42:31.520Z,19.14
2018-12-10T00:43:31.144Z,19.14
2018-12-10T00:44:31.175Z,19.14
2018-12-10T00:45:30.947Z,19.13
2018-12-10T00:46:31.893Z,19.13
2018-12-10T00:47:31.152Z,19.12
2018-12-10T00:48:31.280Z,19.12
2018-12-10T00:49:31.158Z,19.11
2018-12-10T00:50:31.184Z,19.12
2018-12-10T00:51:31.107Z,19.11
2018-12-10T00:52:31.066Z,19.11
2018-12-10T00:53:31.186Z,19.09
2018-12-10T00:54:31.624Z,19.09
2018-12-10T00:55:31.159Z,19.09
2018-12-10T00:56:32.097Z,19.1
2018-12-10T00:57:31.402Z,19.09
2018-12-10T00:58:31.341Z,19.09
2018-12-10T00:59:31.025Z,19.09
2018-12-10T01:00:30.854Z,19.07
2018-12-10T01:01:31.047Z,19.08
2018-12-10T01:02:31.279Z,19.07
2018-12-10T01:03:30.810Z,19.07
2018-12-10T01:04:31.236Z,19.07
2018-12-10T01:05:31.192Z,19.07
2018-12-10T01:06:30.933Z,19.06
2018-12-10T01:07:31.101Z,19.05
2018-12-10T01:08:31.205Z,19.06
2018-12-10T01:09:30.915Z,19.05
2018-12-10T01:10:30.977Z,19.04
2018-12-10T01:11:31.042Z,19.04
2018-12-10T01:12:31.125Z,19.03
2018-12-10T01:13:30.938Z,19.03
2018-12-10T01:14:31.100Z,19.03
2018-12-10T01:15:30.994Z,19.03
2018-12-10T01:16:31.266Z,19.03
2018-12-10T01:17:31.098Z,19.03
2018-12-10T01:18:31.059Z,19.03
2018-12-10T01:19:30.906Z,19.02
2018-12-10T01:20:31.096Z,19.01
2018-12-10T01:21:31.196Z,19.03
2018-12-10T01:22:31.107Z,19.02
2018-12-10T01:23:31.014Z,19.02
2018-12-10T01:24:30.909Z,19.01
2018-12-10T01:25:31.036Z,19
2018-12-10T01:26:31.233Z,19
2018-12-10T01:27:31.116Z,19.01
2018-12-10T01:28:31.174Z,19
2018-12-10T01:29:30.947Z,18.99
2018-12-10T01:30:31.138Z,18.99
2018-12-10T01:31:31.360Z,18.99
2018-12-10T01:32:31.271Z,18.99
2018-12-10T01:33:31.107Z,18.98
2018-12-10T01:34:30.826Z,18.97
2018-12-10T01:35:30.842Z,18.97
2018-12-10T01:36:30.993Z,18.97
2018-12-10T01:37:31.058Z,18.96
2018-12-10T01:38:31.150Z,18.96
2018-12-10T01:39:31.114Z,18.96
2018-12-10T01:40:31.238Z,18.97
2018-12-10T01:41:31.317Z,18.96
2018-12-10T01:42:31.180Z,18.95
2018-12-10T01:43:30.927Z,18.95
2018-12-10T01:44:31.356Z,18.94
2018-12-10T01:45:30.902Z,18.94
2018-12-10T01:46:31.437Z,18.93
2018-12-10T01:47:31.185Z,18.94
2018-12-10T01:48:31.029Z,18.93
2018-12-10T01:49:31.406Z,18.93
2018-12-10T01:50:31.500Z,18.93
2018-12-10T01:51:31.799Z,18.93
2018-12-10T01:52:30.916Z,18.91
2018-12-10T01:53:31.290Z,18.92
2018-12-10T01:54:30.964Z,18.92
2018-12-10T01:55:31.166Z,18.92
2018-12-10T01:56:31.218Z,18.91
2018-12-10T01:57:31.406Z,18.91
2018-12-10T01:58:30.882Z,18.9
2018-12-10T01:59:31.097Z,18.9
2018-12-10T02:00:31.332Z,18.9
2018-12-10T02:01:31.786Z,18.9
2018-12-10T02:02:31.342Z,18.9
2018-12-10T02:03:31.215Z,18.89
2018-12-10T02:04:31.082Z,18.9
2018-12-10T02:05:31.173Z,18.89
2018-12-10T02:06:30.976Z,18.89
2018-12-10T02:07:31.820Z,18.88
2018-12-10T02:08:31.316Z,18.87
2018-12-10T02:09:31.416Z,18.87
2018-12-10T02:10:30.882Z,18.88
2018-12-10T02:11:31.141Z,18.87
2018-12-10T02:12:31.240Z,18.87
2018-12-10T02:13:31.492Z,18.86
2018-12-10T02:14:30.970Z,18.86
2018-12-10T02:15:31.259Z,18.86
2018-12-10T02:16:31.410Z,18.86
2018-12-10T02:17:31.070Z,18.86
2018-12-10T02:18:31.184Z,18.85
2018-12-10T02:19:31.067Z,18.85
2018-12-10T02:20:31.308Z,18.85
2018-12-10T02:21:31.677Z,18.85
2018-12-10T02:22:31.210Z,18.84
2018-12-10T02:23:30.840Z,18.84
2018-12-10T02:24:30.905Z,18.84
2018-12-10T02:25:31.434Z,18.84
2018-12-10T02:26:31.237Z,18.84
2018-12-10T02:27:31.360Z,18.84
2018-12-10T02:28:30.896Z,18.84
2018-12-10T02:29:31.099Z,18.83
2018-12-10T02:30:30.911Z,18.83
2018-12-10T02:31:31.154Z,18.83
2018-12-10T02:32:31.472Z,18.83
2018-12-10T02:33:31.164Z,18.82
2018-12-10T02:34:31.205Z,18.82
2018-12-10T02:35:31.423Z,18.82
2018-12-10T02:36:31.032Z,18.81
2018-12-10T02:37:31.042Z,18.8
2018-12-10T02:38:31.257Z,18.81
2018-12-10T02:39:31.316Z,18.8
2018-12-10T02:40:31.202Z,18.81
2018-12-10T02:41:31.014Z,18.8
2018-12-10T02:42:31.090Z,18.79
2018-12-10T02:43:30.999Z,18.78
2018-12-10T02:44:31.137Z,18.78
2018-12-10T02:45:31.090Z,18.78
2018-12-10T02:46:31.225Z,18.78
2018-12-10T02:47:31.116Z,18.78
2018-12-10T02:48:31.009Z,18.78
2018-12-10T02:49:31.005Z,18.78
2018-12-10T02:50:31.423Z,18.78
2018-12-10T02:51:30.991Z,18.78
2018-12-10T02:52:31.115Z,18.77
2018-12-10T02:53:31.374Z,18.77
2018-12-10T02:54:31.611Z,18.77
2018-12-10T02:55:30.879Z,18.77
2018-12-10T02:56:30.895Z,18.76
2018-12-10T02:57:31.141Z,18.76
2018-12-10T02:58:30.968Z,18.76
2018-12-10T02:59:31.181Z,18.76
2018-12-10T03:00:31.268Z,18.76
2018-12-10T03:01:31.016Z,18.75
2018-12-10T03:02:31.337Z,18.75
2018-12-10T03:03:30.859Z,18.75
2018-12-10T03:04:30.905Z,18.75
2018-12-10T03:05:30.939Z,18.74
2018-12-10T03:06:31.590Z,18.74
2018-12-10T03:07:30.935Z,18.73
2018-12-10T03:08:31.943Z,18.73
2018-12-10T03:09:31.122Z,18.73
2018-12-10T03:10:30.891Z,18.74
2018-12-10T03:11:31.274Z,18.73
2018-12-10T03:12:31.168Z,18.72
2018-12-10T03:13:30.829Z,18.72
2018-12-10T03:14:30.854Z,18.72
2018-12-10T03:15:31.277Z,18.72
2018-12-10T03:16:31.318Z,18.72
2018-12-10T03:17:31.228Z,18.71
2018-12-10T03:18:31.076Z,18.71
2018-12-10T03:19:31.021Z,18.71
2018-12-10T03:20:31.034Z,18.71
2018-12-10T03:21:31.413Z,18.7
2018-12-10T03:22:31.065Z,18.7
2018-12-10T03:23:31.148Z,18.7
2018-12-10T03:24:31.238Z,18.7
2018-12-10T03:25:31.375Z,18.69
2018-12-10T03:26:31.023Z,18.69
2018-12-10T03:27:31.297Z,18.69
2018-12-10T03:28:31.096Z,18.68
2018-12-10T03:29:31.609Z,18.69
2018-12-10T03:30:31.170Z,18.68
2018-12-10T03:31:31.124Z,18.68
2018-12-10T03:32:31.104Z,18.68
2018-12-10T03:33:30.919Z,18.67
2018-12-10T03:34:31.113Z,18.67
2018-12-10T03:35:30.884Z,18.67
2018-12-10T03:36:30.994Z,18.67
2018-12-10T03:37:31.159Z,18.66
2018-12-10T03:38:30.955Z,18.66
2018-12-10T03:39:31.487Z,18.67
2018-12-10T03:40:31.066Z,18.66
2018-12-10T03:41:30.977Z,18.66
2018-12-10T03:42:31.185Z,18.66
2018-12-10T03:43:31.379Z,18.65
2018-12-10T03:44:31.328Z,18.66
2018-12-10T03:45:31.298Z,18.66
2018-12-10T03:46:31.131Z,18.66
2018-12-10T03:47:31.214Z,18.65
2018-12-10T03:48:31.020Z,18.64
2018-12-10T03:49:30.889Z,18.64
2018-12-10T03:50:31.244Z,18.64
2018-12-10T03:51:31.158Z,18.64
2018-12-10T03:52:31.387Z,18.64
2018-12-10T03:53:31.107Z,18.63
2018-12-10T03:54:31.155Z,18.63
2018-12-10T03:55:31.921Z,18.62
2018-12-10T03:56:30.853Z,18.62
2018-12-10T03:57:31.313Z,18.63
2018-12-10T03:58:31.457Z,18.63
2018-12-10T03:59:30.980Z,18.62
2018-12-10T04:00:30.903Z,18.62
2018-12-10T04:01:31.425Z,18.61
2018-12-10T04:02:30.792Z,18.62
2018-12-10T04:03:31.294Z,18.6
2018-12-10T04:04:31.120Z,18.61
2018-12-10T04:05:30.989Z,18.61
2018-12-10T04:06:31.354Z,18.6
2018-12-10T04:07:30.921Z,18.6
2018-12-10T04:08:31.059Z,18.6
2018-12-10T04:09:31.134Z,18.6
2018-12-10T04:10:30.917Z,18.6
2018-12-10T04:11:31.061Z,18.6
2018-12-10T04:12:31.018Z,18.6
2018-12-10T04:13:31.126Z,18.6
2018-12-10T04:14:31.206Z,18.59
2018-12-10T04:15:30.984Z,18.59
2018-12-10T04:16:31.211Z,18.59
2018-12-10T04:17:31.213Z,18.59
2018-12-10T04:18:31.406Z,18.58
2018-12-10T04:19:30.984Z,18.58
2018-12-10T04:20:31.146Z,18.58
2018-12-10T04:21:31.146Z,18.58
2018-12-10T04:22:31.000Z,18.57
2018-12-10T04:23:30.923Z,18.57
2018-12-10T04:24:30.850Z,18.57
2018-12-10T04:25:30.724Z,18.57
2018-12-10T04:26:31.114Z,18.56
2018-12-10T04:27:31.024Z,18.56
2018-12-10T04:28:30.991Z,18.56
2018-12-10T04:29:31.153Z,18.56
2018-12-10T04:30:30.950Z,18.55
2018-12-10T04:31:30.854Z,18.55
2018-12-10T04:32:31.269Z,18.56
2018-12-10T04:33:30.985Z,18.54
2018-12-10T04:34:30.906Z,18.55
2018-12-10T04:35:30.933Z,18.55
2018-12-10T04:36:30.970Z,18.54
2018-12-10T04:37:31.067Z,18.54
2018-12-10T04:38:31.085Z,18.54
2018-12-10T04:39:31.078Z,18.54
2018-12-10T04:40:31.039Z,18.54
2018-12-10T04:41:31.151Z,18.54
2018-12-10T04:42:30.928Z,18.54
2018-12-10T04:43:31.126Z,18.54
2018-12-10T04:44:30.759Z,18.53
2018-12-10T04:45:31.072Z,18.53
2018-12-10T04:46:30.787Z,18.53
2018-12-10T04:47:30.992Z,18.53
2018-12-10T04:48:31.442Z,18.53
2018-12-10T04:49:31.347Z,18.52
2018-12-10T04:50:31.293Z,18.52
2018-12-10T04:51:31.174Z,18.52
2018-12-10T04:52:30.860Z,18.51
2018-12-10T04:53:30.778Z,18.51
2018-12-10T04:54:31.325Z,18.5
2018-12-10T04:55:31.021Z,18.51
2018-12-10T04:56:30.869Z,18.5
2018-12-10T04:57:31.074Z,18.5
2018-12-10T04:58:31.063Z,18.49
2018-12-10T04:59:31.212Z,18.49
2018-12-10T05:00:31.237Z,18.5
2018-12-10T05:01:30.802Z,18.49
2018-12-10T05:02:31.002Z,18.48
2018-12-10T05:03:31.100Z,18.49
2018-12-10T05:04:31.186Z,18.49
2018-12-10T05:05:31.030Z,18.48
2018-12-10T05:06:31.272Z,18.48
2018-12-10T05:07:30.827Z,18.48
2018-12-10T05:08:31.406Z,18.48
2018-12-10T05:09:30.850Z,18.48
2018-12-10T05:10:31.106Z,18.48
2018-12-10T05:11:30.874Z,18.47
2018-12-10T05:12:31.115Z,18.47
2018-12-10T05:13:30.938Z,18.48
2018-12-10T05:14:31.124Z,18.48
2018-12-10T05:15:31.009Z,18.48
2018-12-10T05:16:30.885Z,18.47
2018-12-10T05:17:31.268Z,18.47
2018-12-10T05:18:30.757Z,18.47
2018-12-10T05:19:31.069Z,18.46
2018-12-10T05:20:31.021Z,18.46
2018-12-10T05:21:30.843Z,18.45
2018-12-10T05:22:31.197Z,18.45
2018-12-10T05:23:30.876Z,18.45
2018-12-10T05:24:31.030Z,18.46
2018-12-10T05:25:30.811Z,18.45
2018-12-10T05:26:30.956Z,18.45
2018-12-10T05:27:30.983Z,18.45
2018-12-10T05:28:31.689Z,18.45
2018-12-10T05:29:31.387Z,18.44
2018-12-10T05:30:30.967Z,18.43
2018-12-10T05:31:31.205Z,18.43
2018-12-10T05:32:30.917Z,18.43
2018-12-10T05:33:30.966Z,18.43
2018-12-10T05:34:30.803Z,18.42
2018-12-10T05:35:30.969Z,18.43
2018-12-10T05:36:31.466Z,18.42
2018-12-10T05:37:30.910Z,18.42
2018-12-10T05:38:30.921Z,18.42
2018-12-10T05:39:30.794Z,18.41
2018-12-10T05:40:31.393Z,18.41
2018-12-10T05:41:30.851Z,18.41
2018-12-10T05:42:30.853Z,18.41
2018-12-10T05:43:30.784Z,18.41
2018-12-10T05:44:30.861Z,18.41
2018-12-10T05:45:31.155Z,18.41
2018-12-10T05:46:30.923Z,18.41
2018-12-10T05:47:31.031Z,18.4
2018-12-10T05:48:31.154Z,18.4
2018-12-10T05:49:31.187Z,18.4
2018-12-10T05:50:30.863Z,18.41
2018-12-10T05:51:31.185Z,18.4
2018-12-10T05:52:31.009Z,18.4
2018-12-10T05:53:30.972Z,18.4
2018-12-10T05:54:31.034Z,18.4
2018-12-10T05:55:30.929Z,18.39
2018-12-10T05:56:31.026Z,18.39
2018-12-10T05:57:30.736Z,18.4
2018-12-10T05:58:31.954Z,18.39
2018-12-10T05:59:31.053Z,18.39
2018-12-10T06:00:31.013Z,18.39
2018-12-10T06:01:31.005Z,18.39
2018-12-10T06:02:30.884Z,18.38
2018-12-10T06:03:30.922Z,18.38
2018-12-10T06:04:30.912Z,18.38
2018-12-10T06:05:31.204Z,18.38
2018-12-10T06:06:30.967Z,18.38
2018-12-10T06:07:30.985Z,18.37
2018-12-10T06:08:30.921Z,18.36
2018-12-10T06:09:30.889Z,18.37
2018-12-10T06:10:30.924Z,18.37
2018-12-10T06:11:30.732Z,18.38
2018-12-10T06:12:30.948Z,18.38
2018-12-10T06:13:30.730Z,18.37
2018-12-10T06:14:30.793Z,18.38
2018-12-10T06:15:31.165Z,18.36
2018-12-10T06:16:31.058Z,18.36
2018-12-10T06:17:30.943Z,18.37
2018-12-10T06:18:30.743Z,18.36
2018-12-10T06:19:31.006Z,18.35
2018-12-10T06:20:31.192Z,18.35
2018-12-10T06:21:30.853Z,18.35
2018-12-10T06:22:30.745Z,18.35
2018-12-10T06:23:30.820Z,18.35
2018-12-10T06:24:30.917Z,18.35
2018-12-10T06:25:30.741Z,18.35
2018-12-10T06:26:31.019Z,18.35
2018-12-10T06:27:30.759Z,18.35
2018-12-10T06:28:31.128Z,18.35
2018-12-10T06:29:31.236Z,18.35
2018-12-10T06:30:30.860Z,18.35
2018-12-10T06:31:30.754Z,18.34
2018-12-10T06:32:30.802Z,18.34
2018-12-10T06:33:30.878Z,18.34
2018-12-10T06:34:30.709Z,18.34
2018-12-10T06:35:30.926Z,18.33
2018-12-10T06:36:31.001Z,18.32
2018-12-10T06:37:38.094Z,18.34
2018-12-10T06:38:31.207Z,18.33
2018-12-10T06:39:31.534Z,18.33
2018-12-10T06:40:30.815Z,18.34
2018-12-10T06:41:30.957Z,18.32
2018-12-10T06:42:30.789Z,18.35
2018-12-10T06:43:31.063Z,18.38
2018-12-10T06:44:31.072Z,18.41
2018-12-10T06:45:30.834Z,18.43
2018-12-10T06:46:31.076Z,18.47
2018-12-10T06:47:30.875Z,18.5
2018-12-10T06:48:31.250Z,18.53
2018-12-10T06:49:30.986Z,18.57
2018-12-10T06:50:31.308Z,18.57
2018-12-10T06:51:31.070Z,18.6
2018-12-10T06:52:30.855Z,18.61
2018-12-10T06:53:31.018Z,18.64
2018-12-10T06:54:30.778Z,18.66
2018-12-10T06:55:30.881Z,18.68
2018-12-10T06:56:30.763Z,18.72
2018-12-10T06:57:30.821Z,18.75
2018-12-10T06:58:30.742Z,18.78
2018-12-10T06:59:30.801Z,18.8
2018-12-10T07:00:31.353Z,18.83
2018-12-10T07:01:31.165Z,18.85
2018-12-10T07:02:31.088Z,18.87
2018-12-10T07:03:30.729Z,18.93
2018-12-10T07:04:31.096Z,18.94
2018-12-10T07:05:31.184Z,18.97
2018-12-10T07:06:31.353Z,18.98
2018-12-10T07:07:30.753Z,19
2018-12-10T07:08:30.917Z,19.03
2018-12-10T07:09:31.015Z,19.09
2018-12-10T07:10:30.733Z,19.09
2018-12-10T07:11:30.975Z,19.09
2018-12-10T07:12:30.793Z,19.09
2018-12-10T07:13:30.798Z,19.08
2018-12-10T07:14:31.039Z,19.05
2018-12-10T07:15:30.846Z,19.06
2018-12-10T07:16:30.713Z,19.08
2018-12-10T07:17:31.087Z,19.07
2018-12-10T07:18:30.867Z,19.09
2018-12-10T07:19:31.090Z,19.15
2018-12-10T07:20:30.832Z,19.16
2018-12-10T07:21:30.995Z,19.16
2018-12-10T07:22:30.927Z,19.18
2018-12-10T07:23:30.819Z,19.21
2018-12-10T07:24:31.235Z,19.21
2018-12-10T07:25:30.751Z,19.22
2018-12-10T07:26:30.985Z,19.24
2018-12-10T07:27:30.789Z,19.23
2018-12-10T07:28:31.259Z,19.3
2018-12-10T07:29:31.096Z,19.3
2018-12-10T07:30:30.986Z,19.32
2018-12-10T07:31:30.911Z,19.33
2018-12-10T07:32:31.192Z,19.34
2018-12-10T07:33:31.043Z,19.36
2018-12-10T07:34:30.936Z,19.36
2018-12-10T07:35:31.003Z,19.38
2018-12-10T07:36:30.778Z,19.4
2018-12-10T07:37:31.009Z,19.42
2018-12-10T07:38:30.744Z,19.43
2018-12-10T07:39:31.045Z,19.45
2018-12-10T07:40:31.048Z,19.48
2018-12-10T07:41:30.943Z,19.49
2018-12-10T07:42:30.959Z,19.51
2018-12-10T07:43:31.055Z,19.52
2018-12-10T07:44:30.995Z,19.53
2018-12-10T07:45:30.815Z,19.55
2018-12-10T07:46:31.119Z,19.57
2018-12-10T07:47:30.854Z,19.59
2018-12-10T07:48:30.680Z,19.59
2018-12-10T07:49:30.829Z,19.6
2018-12-10T07:50:31.609Z,19.62
2018-12-10T07:51:31.021Z,19.63
2018-12-10T07:52:30.907Z,19.65
2018-12-10T07:53:30.898Z,19.68
2018-12-10T07:54:31.002Z,19.66
2018-12-10T07:55:30.844Z,19.63
2018-12-10T07:56:30.815Z,19.63
2018-12-10T07:57:30.941Z,19.63
2018-12-10T07:58:31.008Z,19.64
2018-12-10T07:59:30.829Z,19.64
2018-12-10T08:00:31.074Z,19.65
2018-12-10T08:01:30.846Z,19.64
2018-12-10T08:02:31.001Z,19.65
2018-12-10T08:03:30.902Z,19.65
2018-12-10T08:04:30.893Z,19.66
2018-12-10T08:05:30.991Z,19.64
2018-12-10T08:06:30.717Z,19.64
2018-12-10T08:07:30.985Z,19.64
2018-12-10T08:08:30.813Z,19.64
2018-12-10T08:09:30.839Z,19.63
2018-12-10T08:10:30.865Z,19.63
2018-12-10T08:11:31.046Z,19.63
2018-12-10T08:12:31.061Z,19.63
2018-12-10T08:13:31.499Z,19.63
2018-12-10T08:14:31.166Z,19.63
2018-12-10T08:15:30.696Z,19.63
2018-12-10T08:16:30.835Z,19.62
2018-12-10T08:17:30.693Z,19.61
2018-12-10T08:18:31.070Z,19.61
2018-12-10T08:19:31.306Z,19.61
2018-12-10T08:20:31.030Z,19.61
2018-12-10T08:21:31.206Z,19.6
2018-12-10T08:22:30.772Z,19.6
2018-12-10T08:23:32.372Z,19.59
2018-12-10T08:24:31.019Z,19.59
2018-12-10T08:25:31.344Z,19.59
2018-12-10T08:26:31.151Z,19.58
2018-12-10T08:27:30.899Z,19.58
2018-12-10T08:28:30.856Z,19.58
2018-12-10T08:29:30.975Z,19.57
2018-12-10T08:30:31.324Z,19.57
2018-12-10T08:31:30.725Z,19.57
2018-12-10T08:32:30.956Z,19.56
2018-12-10T08:33:30.788Z,19.56
2018-12-10T08:34:30.990Z,19.56
2018-12-10T08:35:31.227Z,19.55
2018-12-10T08:36:30.828Z,19.54
2018-12-10T08:37:31.152Z,19.54
2018-12-10T08:38:30.734Z,19.53
2018-12-10T08:39:30.823Z,19.53
2018-12-10T08:40:31.127Z,19.52
2018-12-10T08:41:30.765Z,19.52
2018-12-10T08:42:31.073Z,19.52
2018-12-10T08:43:31.205Z,19.52
2018-12-10T08:44:30.995Z,19.51
2018-12-10T08:45:30.835Z,19.51
2018-12-10T08:46:30.850Z,19.51
2018-12-10T08:47:30.939Z,19.5
2018-12-10T08:48:30.872Z,19.5
2018-12-10T08:49:31.311Z,19.49
2018-12-10T08:50:31.120Z,19.48
2018-12-10T08:51:30.711Z,19.48
2018-12-10T08:52:30.999Z,19.48
2018-12-10T08:53:31.136Z,19.48
2018-12-10T08:54:30.720Z,19.47
2018-12-10T08:55:30.985Z,19.46
2018-12-10T08:56:31.227Z,19.46
2018-12-10T08:57:31.333Z,19.45
2018-12-10T08:58:35.307Z,19.45
2018-12-10T08:59:35.545Z,19.45
2018-12-10T09:00:30.855Z,19.43
2018-12-10T09:01:31.001Z,19.43
2018-12-10T09:02:31.409Z,19.43
2018-12-10T09:03:31.763Z,19.42
2018-12-10T09:04:31.107Z,19.41
2018-12-10T09:05:31.143Z,19.41
2018-12-10T09:06:30.947Z,19.4
2018-12-10T09:07:30.782Z,19.4
2018-12-10T09:08:30.910Z,19.39
2018-12-10T09:09:30.824Z,19.39
2018-12-10T09:10:31.309Z,19.39
2018-12-10T09:11:31.056Z,19.39
2018-12-10T09:12:30.817Z,19.37
2018-12-10T09:13:31.120Z,19.36
2018-12-10T09:14:30.862Z,19.36
2018-12-10T09:15:30.902Z,19.35
2018-12-10T09:16:31.260Z,19.34
2018-12-10T09:17:31.242Z,19.34
2018-12-10T09:18:31.314Z,19.33
2018-12-10T09:19:31.285Z,19.33
2018-12-10T09:20:30.745Z,19.33
2018-12-10T09:21:30.927Z,19.32
2018-12-10T09:22:30.958Z,19.31
2018-12-10T09:23:30.925Z,19.3
2018-12-10T09:24:30.975Z,19.29
2018-12-10T09:25:31.294Z,19.3
2018-12-10T09:26:31.249Z,19.29
2018-12-10T09:27:30.675Z,19.28
2018-12-10T09:28:31.201Z,19.27
2018-12-10T09:29:31.692Z,19.27
2018-12-10T09:30:31.135Z,19.27
2018-12-10T09:31:30.853Z,19.27
2018-12-10T09:32:30.796Z,19.26
2018-12-10T09:33:30.873Z,19.26
2018-12-10T09:34:30.686Z,19.26
2018-12-10T09:35:30.921Z,19.25
2018-12-10T09:36:30.937Z,19.24
2018-12-10T09:37:30.930Z,19.23
2018-12-10T09:38:30.733Z,19.23
2018-12-10T09:39:30.843Z,19.23
2018-12-10T09:40:30.987Z,19.22
2018-12-10T09:41:30.678Z,19.21
2018-12-10T09:42:31.112Z,19.21
2018-12-10T09:43:30.840Z,19.2
2018-12-10T09:44:30.821Z,19.19
2018-12-10T09:45:30.642Z,19.19
2018-12-10T09:46:31.131Z,19.18
2018-12-10T09:47:30.878Z,19.19
2018-12-10T09:48:30.762Z,19.17
2018-12-10T09:49:30.949Z,19.17
2018-12-10T09:50:30.749Z,19.17
2018-12-10T09:51:30.912Z,19.16
2018-12-10T09:52:31.298Z,19.15
2018-12-10T09:53:31.207Z,19.16
2018-12-10T09:54:30.826Z,19.15
2018-12-10T09:55:31.093Z,19.15
2018-12-10T09:56:31.120Z,19.15
2018-12-10T09:57:31.096Z,19.14
2018-12-10T09:58:30.945Z,19.13
2018-12-10T09:59:30.709Z,19.13
2018-12-10T10:00:31.105Z,19.12
2018-12-10T10:01:30.975Z,19.12
2018-12-10T10:02:30.688Z,19.11
2018-12-10T10:03:30.681Z,19.11
2018-12-10T10:04:31.207Z,19.1
2018-12-10T10:05:30.815Z,19.1
2018-12-10T10:06:31.541Z,19.09
2018-12-10T10:07:31.458Z,19.09
2018-12-10T10:08:30.783Z,19.09
2018-12-10T10:09:31.052Z,19.09
2018-12-10T10:10:31.592Z,19.07
2018-12-10T10:11:30.716Z,19.08
2018-12-10T10:12:31.292Z,19.07
2018-12-10T10:13:31.203Z,19.06
2018-12-10T10:14:31.134Z,19.05
2018-12-10T10:15:30.713Z,19.05
2018-12-10T10:16:30.951Z,19.05
2018-12-10T10:17:30.868Z,19.04
2018-12-10T10:18:31.387Z,19.04
2018-12-10T10:19:30.919Z,19.04
2018-12-10T10:20:30.864Z,19.03
2018-12-10T10:21:30.925Z,19.03
2018-12-10T10:22:31.070Z,19.03
2018-12-10T10:23:30.716Z,19.03
2018-12-10T10:24:31.150Z,19.02
2018-12-10T10:25:31.095Z,19.02
2018-12-10T10:26:30.819Z,19
2018-12-10T10:27:31.054Z,19
2018-12-10T10:28:30.806Z,19
2018-12-10T10:29:30.835Z,19
2018-12-10T10:30:30.685Z,18.99
2018-12-10T10:31:31.730Z,18.98
2018-12-10T10:32:30.833Z,18.98
2018-12-10T10:33:32.863Z,18.98
2018-12-10T10:34:31.221Z,18.97
2018-12-10T10:35:31.714Z,18.96
2018-12-10T10:36:30.837Z,18.97
2018-12-10T10:37:30.826Z,18.97
2018-12-10T10:38:30.861Z,18.96
2018-12-10T10:39:30.746Z,18.95
2018-12-10T10:40:31.037Z,18.95
2018-12-10T10:41:31.871Z,18.94
2018-12-10T10:42:30.863Z,18.94
2018-12-10T10:43:31.106Z,18.93
2018-12-10T10:44:31.154Z,18.92
2018-12-10T10:45:35.311Z,18.93
2018-12-10T10:46:30.684Z,18.91
2018-12-10T10:47:30.908Z,18.91
2018-12-10T10:48:31.180Z,18.9
2018-12-10T10:49:30.818Z,18.9
2018-12-10T10:50:31.132Z,18.9
2018-12-10T10:51:30.804Z,18.9
2018-12-10T10:52:33.814Z,18.9
2018-12-10T10:53:31.326Z,18.9
2018-12-10T10:54:30.864Z,18.9
2018-12-10T10:55:30.889Z,18.89
2018-12-10T10:56:30.751Z,18.88
2018-12-10T10:57:31.869Z,18.88
2018-12-10T10:58:30.793Z,18.88
2018-12-10T10:59:31.255Z,18.88
2018-12-10T11:00:30.887Z,18.87
2018-12-10T11:01:30.857Z,18.87
2018-12-10T11:02:31.404Z,18.87
2018-12-10T11:03:31.091Z,18.86
2018-12-10T11:04:38.081Z,18.86
2018-12-10T11:05:31.050Z,18.86
2018-12-10T11:06:31.260Z,18.85
2018-12-10T11:07:31.778Z,18.86
2018-12-10T11:08:30.671Z,18.85
2018-12-10T11:09:30.774Z,18.85
2018-12-10T11:10:31.167Z,18.85
2018-12-10T11:11:30.755Z,18.84
2018-12-10T11:12:31.458Z,18.84
2018-12-10T11:13:31.057Z,18.85
2018-12-10T11:14:30.959Z,18.84
2018-12-10T11:15:30.969Z,18.85
2018-12-10T11:16:31.043Z,18.85
2018-12-10T11:17:31.207Z,18.84
2018-12-10T11:18:30.941Z,18.84
2018-12-10T11:19:30.792Z,18.84
2018-12-10T11:20:30.865Z,18.83
2018-12-10T11:21:31.186Z,18.84
2018-12-10T11:22:30.876Z,18.84
2018-12-10T11:23:31.204Z,18.84
2018-12-10T11:24:30.966Z,18.83
2018-12-10T11:25:30.730Z,18.83
2018-12-10T11:26:30.732Z,18.83
2018-12-10T11:27:30.721Z,18.83
2018-12-10T11:28:31.221Z,18.83
2018-12-10T11:29:30.774Z,18.83
2018-12-10T11:30:31.363Z,18.83
2018-12-10T11:31:30.819Z,18.82
2018-12-10T11:32:30.749Z,18.82
2018-12-10T11:33:31.093Z,18.81
2018-12-10T11:34:31.022Z,18.81
2018-12-10T11:35:30.865Z,18.81
2018-12-10T11:36:30.834Z,18.8
2018-12-10T11:37:31.208Z,18.8
2018-12-10T11:38:31.223Z,18.8
2018-12-10T11:39:30.768Z,18.8
2018-12-10T11:40:30.605Z,18.8
2018-12-10T11:41:31.019Z,18.79
2018-12-10T11:42:30.939Z,18.8
2018-12-10T11:43:30.776Z,18.79
2018-12-10T11:44:30.832Z,18.79
2018-12-10T11:45:30.674Z,18.79
2018-12-10T11:46:31.581Z,18.79
2018-12-10T11:47:31.054Z,18.79
2018-12-10T11:48:30.811Z,18.78
2018-12-10T11:49:31.184Z,18.78
2018-12-10T11:50:31.290Z,18.78
2018-12-10T11:51:30.896Z,18.78
2018-12-10T11:52:30.771Z,18.78
2018-12-10T11:53:30.754Z,18.78
2018-12-10T11:54:30.983Z,18.77
2018-12-10T11:55:31.095Z,18.77
2018-12-10T11:56:31.261Z,18.77
2018-12-10T11:57:31.126Z,18.77
2018-12-10T11:58:31.283Z,18.77
2018-12-10T11:59:30.791Z,18.76
2018-12-10T12:00:30.691Z,18.77
2018-12-10T12:01:31.246Z,18.77
2018-12-10T12:02:30.785Z,18.76
2018-12-10T12:03:30.759Z,18.76
2018-12-10T12:04:30.618Z,18.76
2018-12-10T12:05:31.009Z,18.76
2018-12-10T12:06:30.777Z,18.75
2018-12-10T12:07:30.794Z,18.75
2018-12-10T12:08:31.572Z,18.75
2018-12-10T12:09:30.892Z,18.75
2018-12-10T12:10:30.691Z,18.75
2018-12-10T12:11:31.053Z,18.74
2018-12-10T12:12:30.853Z,18.73
2018-12-10T12:13:31.677Z,18.73
2018-12-10T12:14:31.118Z,18.73
2018-12-10T12:15:30.745Z,18.73
2018-12-10T12:16:31.095Z,18.72
2018-12-10T12:17:30.994Z,18.72
2018-12-10T12:18:30.823Z,18.72
2018-12-10T12:19:30.645Z,18.72
2018-12-10T12:20:30.805Z,18.72
2018-12-10T12:21:30.739Z,18.72
2018-12-10T12:22:30.797Z,18.72
2018-12-10T12:23:31.124Z,18.72
2018-12-10T12:24:30.840Z,18.72
2018-12-10T12:25:30.992Z,18.72
2018-12-10T12:26:31.311Z,18.72
2018-12-10T12:27:30.757Z,18.72
2018-12-10T12:28:30.878Z,18.72
2018-12-10T12:29:30.970Z,18.72
2018-12-10T12:30:30.938Z,18.72
2018-12-10T12:31:30.724Z,18.71
2018-12-10T12:32:30.875Z,18.71
2018-12-10T12:33:31.207Z,18.71
2018-12-10T12:34:30.752Z,18.7
2018-12-10T12:35:31.251Z,18.71
2018-12-10T12:36:31.138Z,18.7
2018-12-10T12:37:30.813Z,18.7
2018-12-10T12:38:30.626Z,18.7
2018-12-10T12:39:30.834Z,18.7
2018-12-10T12:40:31.422Z,18.69
2018-12-10T12:41:31.298Z,18.69
2018-12-10T12:42:30.743Z,18.69
2018-12-10T12:43:30.968Z,18.69
2018-12-10T12:44:31.482Z,18.69
2018-12-10T12:45:31.056Z,18.69
2018-12-10T12:46:31.283Z,18.68
2018-12-10T12:47:30.824Z,18.68
2018-12-10T12:48:30.969Z,18.68
2018-12-10T12:49:30.756Z,18.67
2018-12-10T12:50:31.008Z,18.67
2018-12-10T12:51:31.136Z,18.67
2018-12-10T12:52:30.699Z,18.67
2018-12-10T12:53:31.048Z,18.67
2018-12-10T12:54:30.818Z,18.67
2018-12-10T12:55:31.209Z,18.66